createdAt,value
2018-03-03T00:01:06.933Z,0
2018-03-03T00:02:16.759Z,0
2018-03-03T00:03:26.542Z,0
2018-03-03T00:04:36.632Z,0
2018-03-03T00:05:46.460Z,0
2018-03-03T00:06:56.529Z,0
2018-03-03T00:08:06.583Z,0
2018-03-03T00:09:16.130Z,0
2018-03-03T00:10:26.184Z,0
2018-03-03T00:11:36.245Z,0
2018-03-03T00:12:46.299Z,0
2018-03-03T00:13:56.113Z,0
2018-03-03T00:15:06.299Z,0
2018-03-03T00:16:15.840Z,0
2018-03-03T00:17:25.652Z,0
2018-03-03T00:18:35.722Z,0
2018-03-03T00:19:45.521Z,0
2018-03-03T00:20:55.050Z,0
2018-03-03T00:22:04.575Z,0
2018-03-03T00:23:14.636Z,0
2018-03-03T00:24:24.703Z,0
2018-03-03T00:25:34.492Z,0
2018-03-03T00:26:44.281Z,0
2018-03-03T00:27:54.334Z,0
2018-03-03T00:29:03.870Z,0
2018-03-03T00:30:13.662Z,0
2018-03-03T00:31:23.788Z,0
2018-03-03T00:32:33.574Z,0
2018-03-03T00:33:43.384Z,0
2018-03-03T00:34:53.457Z,0
2018-03-03T00:36:03.493Z,0
2018-03-03T00:37:13.325Z,0
2018-03-03T00:38:23.123Z,0
2018-03-03T00:39:32.936Z,0
2018-03-03T00:40:42.996Z,0
2018-03-03T00:41:53.080Z,0
2018-03-03T00:43:03.196Z,0
2018-03-03T00:44:13.002Z,0
2018-03-03T00:45:23.044Z,0
2018-03-03T00:46:33.117Z,0
2018-03-03T00:47:42.927Z,0
2018-03-03T00:48:52.993Z,0
2018-03-03T00:50:03.054Z,0
2018-03-03T00:51:13.132Z,0
2018-03-03T00:52:22.936Z,0
2018-03-03T00:53:32.742Z,0
2018-03-03T00:54:42.856Z,0
2018-03-03T00:55:52.940Z,0
2018-03-03T00:57:03.012Z,0
2018-03-03T00:58:12.548Z,0
2018-03-03T00:59:22.365Z,0
2018-03-03T01:00:32.161Z,0
2018-03-03T01:01:42.231Z,0
2018-03-03T01:02:51.745Z,0
2018-03-03T01:04:01.810Z,0
2018-03-03T01:05:11.343Z,0
2018-03-03T01:06:21.157Z,0
2018-03-03T01:07:31.225Z,0
2018-03-03T01:08:41.001Z,0
2018-03-03T01:09:50.548Z,0
2018-03-03T01:11:00.361Z,0
2018-03-03T01:12:10.492Z,0
2018-03-03T01:13:20.551Z,0
2018-03-03T01:14:30.363Z,0
2018-03-03T01:15:40.424Z,0
2018-03-03T01:16:50.220Z,0
2018-03-03T01:18:00.099Z,0
2018-03-03T01:19:09.910Z,0
2018-03-03T01:20:19.983Z,0
2018-03-03T01:21:29.504Z,0
2018-03-03T01:22:39.556Z,0
2018-03-03T01:23:49.332Z,0
2018-03-03T01:24:59.387Z,0
2018-03-03T01:26:09.452Z,0
2018-03-03T01:27:19.253Z,0
2018-03-03T01:28:28.785Z,0
2018-03-03T01:29:38.837Z,0
2018-03-03T01:30:48.373Z,0
2018-03-03T01:31:57.917Z,0
2018-03-03T01:33:07.721Z,0
2018-03-03T01:34:17.514Z,0
2018-03-03T01:35:28.368Z,0
2018-03-03T01:36:38.607Z,0
2018-03-03T01:37:48.665Z,0
2018-03-03T01:38:58.447Z,0
2018-03-03T01:40:08.500Z,0
2018-03-03T01:41:18.566Z,0
2018-03-03T01:42:28.371Z,0
2018-03-03T01:43:38.441Z,0
2018-03-03T01:44:48.242Z,0
2018-03-03T01:45:58.029Z,0
2018-03-03T01:47:08.145Z,0
2018-03-03T01:48:17.936Z,0
2018-03-03T01:49:27.463Z,0
2018-03-03T01:50:37.279Z,0
2018-03-03T01:51:47.329Z,0
2018-03-03T01:52:57.137Z,0
2018-03-03T01:54:06.933Z,0
2018-03-03T01:55:16.760Z,0
2018-03-03T01:56:26.288Z,0
2018-03-03T01:57:36.351Z,0
2018-03-03T01:58:46.405Z,0
2018-03-03T01:59:56.211Z,0
2018-03-03T02:01:06.007Z,0
2018-03-03T02:02:16.087Z,0
2018-03-03T02:03:26.158Z,0
2018-03-03T02:04:35.964Z,0
2018-03-03T02:05:45.500Z,0
2018-03-03T02:06:55.295Z,0
2018-03-03T02:08:04.832Z,0
2018-03-03T02:09:14.887Z,0
2018-03-03T02:10:24.734Z,0
2018-03-03T02:11:34.522Z,0
2018-03-03T02:12:44.576Z,0
2018-03-03T02:13:54.648Z,0
2018-03-03T02:15:04.702Z,0
2018-03-03T02:16:14.812Z,0
2018-03-03T02:17:24.099Z,0
2018-03-03T02:18:34.148Z,0
2018-03-03T02:19:43.939Z,0
2018-03-03T02:20:53.724Z,0
2018-03-03T02:22:03.514Z,0
2018-03-03T02:23:13.047Z,0
2018-03-03T02:24:22.839Z,0
2018-03-03T02:25:32.942Z,0
2018-03-03T02:26:42.740Z,0
2018-03-03T02:27:52.579Z,0
2018-03-03T02:29:02.618Z,0
2018-03-03T02:30:11.891Z,0
2018-03-03T02:31:21.715Z,0
2018-03-03T02:32:31.257Z,0
2018-03-03T02:33:40.801Z,0
2018-03-03T02:34:50.891Z,0
2018-03-03T02:36:00.950Z,0
2018-03-03T02:37:10.750Z,0
2018-03-03T02:38:20.811Z,0
2018-03-03T02:39:30.934Z,0
2018-03-03T02:40:41.008Z,0
2018-03-03T02:41:51.065Z,0
2018-03-03T02:43:01.146Z,0
2018-03-03T02:44:10.942Z,0
2018-03-03T02:45:21.102Z,0
2018-03-03T02:46:30.894Z,0
2018-03-03T02:47:40.694Z,0
2018-03-03T02:48:50.475Z,0
2018-03-03T02:50:00.013Z,0
2018-03-03T02:51:09.854Z,0
2018-03-03T02:52:19.961Z,0
2018-03-03T02:53:29.756Z,0
2018-03-03T02:54:39.296Z,0
2018-03-03T02:55:48.920Z,0
2018-03-03T02:56:59.055Z,0
2018-03-03T02:58:08.846Z,0
2018-03-03T02:59:18.637Z,0
2018-03-03T03:00:28.534Z,0
2018-03-03T03:01:38.337Z,0
2018-03-03T03:02:48.141Z,0
2018-03-03T03:03:57.944Z,0
2018-03-03T03:05:07.507Z,0
2018-03-03T03:06:17.300Z,0
2018-03-03T03:07:27.350Z,0
2018-03-03T03:08:37.404Z,0
2018-03-03T03:40:02.417Z,0
2018-03-03T03:41:11.930Z,0
2018-03-03T03:42:21.735Z,0
2018-03-03T03:43:31.776Z,0
2018-03-03T03:44:41.027Z,0
2018-03-03T03:45:50.602Z,0
2018-03-03T03:47:00.116Z,0
2018-03-03T03:48:10.165Z,0
2018-03-03T03:49:19.937Z,0
2018-03-03T03:50:29.978Z,0
2018-03-03T03:51:39.788Z,0
2018-03-03T03:52:49.574Z,0
2018-03-03T03:53:59.632Z,0
2018-03-03T03:55:09.673Z,0
2018-03-03T03:56:19.732Z,0
2018-03-03T03:57:29.824Z,0
2018-03-03T03:58:39.864Z,0
2018-03-03T03:59:49.913Z,0
2018-03-03T04:00:59.975Z,0
2018-03-03T04:02:10.053Z,0
2018-03-03T04:03:19.895Z,0
2018-03-03T04:04:29.945Z,0
2018-03-03T04:05:39.485Z,0
2018-03-03T04:06:49.279Z,0
2018-03-03T04:07:59.343Z,0
2018-03-03T04:09:09.443Z,0
2018-03-03T04:10:19.497Z,0
2018-03-03T04:11:29.011Z,0
2018-03-03T04:12:38.801Z,0
2018-03-03T04:13:48.846Z,0
2018-03-03T04:14:58.634Z,0
2018-03-03T04:16:08.697Z,0
2018-03-03T04:17:18.740Z,0
2018-03-03T04:18:29.924Z,0
2018-03-03T04:19:39.712Z,0
2018-03-03T04:20:49.541Z,0
2018-03-03T04:21:59.363Z,0
2018-03-03T04:23:09.417Z,0
2018-03-03T04:24:19.472Z,0
2018-03-03T04:25:29.516Z,0
2018-03-03T04:26:39.618Z,0
2018-03-03T04:27:48.872Z,0
2018-03-03T04:28:58.927Z,0
2018-03-03T04:30:08.724Z,0
2018-03-03T04:31:18.498Z,0
2018-03-03T04:32:28.025Z,0
2018-03-03T04:33:38.109Z,0
2018-03-03T04:34:47.899Z,0
2018-03-03T04:35:57.963Z,0
2018-03-03T04:37:07.505Z,0
2018-03-03T04:38:17.290Z,0
2018-03-03T04:39:27.075Z,0
2018-03-03T04:40:36.594Z,0
2018-03-03T04:41:46.389Z,0
2018-03-03T04:42:56.444Z,0
2018-03-03T04:44:06.280Z,0
2018-03-03T04:45:16.334Z,0
2018-03-03T04:46:25.599Z,0
2018-03-03T04:47:35.390Z,0
2018-03-03T04:48:45.189Z,0
2018-03-03T04:49:54.981Z,0
2018-03-03T04:51:05.039Z,0
2018-03-03T04:52:15.102Z,0
2018-03-03T04:53:25.165Z,0
2018-03-03T04:54:35.243Z,0
2018-03-03T04:55:45.040Z,0
2018-03-03T04:56:54.825Z,0
2018-03-03T04:58:04.902Z,0
2018-03-03T04:59:14.429Z,0
2018-03-03T05:00:24.486Z,0
2018-03-03T05:01:33.753Z,0
2018-03-03T05:02:43.345Z,0
2018-03-03T05:03:52.826Z,0
2018-03-03T05:05:02.614Z,4
2018-03-03T05:06:12.676Z,4
2018-03-03T05:07:22.802Z,4
2018-03-03T05:08:32.868Z,0
2018-03-03T05:09:42.670Z,0
2018-03-03T05:10:52.716Z,4
2018-03-03T05:12:02.768Z,4
2018-03-03T05:13:12.348Z,4
2018-03-03T05:14:21.621Z,4
2018-03-03T05:15:31.659Z,4
2018-03-03T05:16:41.445Z,8
2018-03-03T05:17:50.958Z,8
2018-03-03T05:19:00.738Z,8
2018-03-03T05:20:10.795Z,12
2018-03-03T05:21:20.579Z,12
2018-03-03T05:22:30.217Z,16
2018-03-03T05:23:40.302Z,16
2018-03-03T05:24:49.884Z,20
2018-03-03T05:25:59.925Z,24
2018-03-03T05:27:09.988Z,24
2018-03-03T05:28:20.092Z,32
2018-03-03T05:29:30.196Z,32
2018-03-03T05:30:39.985Z,40
2018-03-03T05:31:50.079Z,44
2018-03-03T05:33:00.142Z,52
2018-03-03T05:34:09.927Z,56
2018-03-03T05:35:19.733Z,60
2018-03-03T05:36:29.916Z,64
2018-03-03T05:37:39.726Z,68
2018-03-03T05:38:49.528Z,72
2018-03-03T05:39:59.571Z,84
2018-03-03T05:41:09.629Z,92
2018-03-03T05:42:19.738Z,100
2018-03-03T05:43:29.530Z,112
2018-03-03T05:44:39.591Z,124
2018-03-03T05:45:49.827Z,136
2018-03-03T05:46:59.614Z,152
2018-03-03T05:48:09.727Z,168
2018-03-03T05:49:19.785Z,184
2018-03-03T05:50:29.610Z,200
2018-03-03T05:51:39.398Z,212
2018-03-03T05:52:49.191Z,228
2018-03-03T05:53:59.290Z,244
2018-03-03T05:55:08.836Z,264
2018-03-03T05:56:18.904Z,280
2018-03-03T05:57:29.021Z,304
2018-03-03T05:58:39.075Z,324
2018-03-03T05:59:48.864Z,344
2018-03-03T06:00:58.675Z,360
2018-03-03T06:02:08.723Z,384
2018-03-03T06:03:18.529Z,408
2018-03-03T06:04:28.607Z,436
2018-03-03T06:05:38.455Z,476
2018-03-03T06:06:48.530Z,524
2018-03-03T06:07:58.581Z,572
2018-03-03T06:09:08.392Z,612
2018-03-03T06:10:17.930Z,648
2018-03-03T06:11:27.968Z,692
2018-03-03T06:12:38.039Z,728
2018-03-03T06:13:48.089Z,768
2018-03-03T06:14:58.152Z,800
2018-03-03T06:16:08.220Z,836
2018-03-03T06:17:18.316Z,868
2018-03-03T06:18:28.379Z,892
2018-03-03T06:19:38.416Z,916
2018-03-03T06:20:48.506Z,944
2018-03-03T06:21:58.607Z,972
2018-03-03T06:23:08.754Z,1004
2018-03-03T06:24:18.858Z,1036
2018-03-03T06:25:28.638Z,1068
2018-03-03T06:26:38.730Z,1100
2018-03-03T06:27:48.514Z,1116
2018-03-03T06:28:58.576Z,1136
2018-03-03T06:30:08.372Z,1156
2018-03-03T06:31:18.168Z,1172
2018-03-03T06:32:28.214Z,1180
2018-03-03T06:33:38.274Z,1188
2018-03-03T06:34:48.559Z,1200
2018-03-03T06:35:58.594Z,1224
2018-03-03T06:37:08.382Z,1252
2018-03-03T06:38:18.439Z,1268
2018-03-03T06:39:28.501Z,1284
2018-03-03T06:40:38.293Z,1296
2018-03-03T06:41:48.088Z,1304
2018-03-03T06:42:57.664Z,1304
2018-03-03T06:44:07.207Z,1296
2018-03-03T06:45:17.268Z,1284
2018-03-03T06:46:27.330Z,1260
2018-03-03T06:47:37.385Z,1240
2018-03-03T06:48:46.908Z,1224
2018-03-03T06:49:56.695Z,1204
2018-03-03T06:51:06.752Z,1184
2018-03-03T06:52:16.545Z,1180
2018-03-03T06:53:26.596Z,1184
2018-03-03T06:54:36.642Z,1200
2018-03-03T06:55:46.440Z,1228
2018-03-03T06:56:56.502Z,1284
2018-03-03T06:58:06.628Z,1368
2018-03-03T06:59:16.683Z,1464
2018-03-03T07:00:26.754Z,1524
2018-03-03T07:01:36.813Z,1608
2018-03-03T07:02:46.335Z,1720
2018-03-03T07:03:56.188Z,1848
2018-03-03T07:05:06.296Z,2220
2018-03-03T07:06:16.361Z,2520
2018-03-03T07:07:26.409Z,2244
2018-03-03T07:08:36.209Z,2120
2018-03-03T07:09:46.061Z,2136
2018-03-03T07:10:56.112Z,2252
2018-03-03T07:12:05.889Z,2512
2018-03-03T07:13:15.952Z,2436
2018-03-03T07:14:26.013Z,2236
2018-03-03T07:15:36.085Z,2120
2018-03-03T07:16:45.876Z,2140
2018-03-03T07:17:55.663Z,2244
2018-03-03T07:19:05.715Z,2356
2018-03-03T07:20:15.514Z,2404
2018-03-03T07:21:25.039Z,2768
2018-03-03T07:22:34.652Z,3372
2018-03-03T07:23:44.612Z,3916
2018-03-03T07:24:54.421Z,4092
2018-03-03T07:26:04.215Z,4132
2018-03-03T07:27:14.067Z,4368
2018-03-03T07:28:24.316Z,4520
2018-03-03T07:29:34.460Z,4624
2018-03-03T07:30:44.000Z,4780
2018-03-03T07:31:54.058Z,4892
2018-03-03T07:33:04.128Z,5032
2018-03-03T07:34:13.919Z,5068
2018-03-03T07:35:23.187Z,5032
2018-03-03T07:36:33.245Z,4908
2018-03-03T07:37:43.065Z,3908
2018-03-03T07:38:53.111Z,3444
2018-03-03T07:40:02.634Z,3248
2018-03-03T07:41:12.163Z,3212
2018-03-03T07:42:22.231Z,3208
2018-03-03T07:43:32.345Z,3224
2018-03-03T07:44:42.133Z,3284
2018-03-03T07:45:51.940Z,3368
2018-03-03T07:47:01.213Z,3468
2018-03-03T07:48:10.747Z,3620
2018-03-03T07:49:20.840Z,3680
2018-03-03T07:50:30.950Z,3812
2018-03-03T07:51:40.748Z,3908
2018-03-03T07:52:50.532Z,3980
2018-03-03T07:54:00.608Z,4056
2018-03-03T07:55:10.682Z,4148
2018-03-03T07:56:20.482Z,4300
2018-03-03T07:57:30.300Z,4456
2018-03-03T07:58:40.379Z,4636
2018-03-03T07:59:50.182Z,4812
2018-03-03T08:01:00.237Z,5012
2018-03-03T08:02:10.304Z,5312
2018-03-03T08:03:20.149Z,6124
2018-03-03T08:04:29.962Z,6108
2018-03-03T08:05:39.765Z,6500
2018-03-03T08:06:49.844Z,6180
2018-03-03T08:07:59.959Z,6748
2018-03-03T08:09:10.027Z,6060
2018-03-03T08:10:19.828Z,6088
2018-03-03T08:11:28.860Z,6948
2018-03-03T08:12:38.665Z,6700
2018-03-03T08:13:48.522Z,6340
2018-03-03T08:14:58.359Z,5988
2018-03-03T08:16:08.153Z,5336
2018-03-03T08:17:17.972Z,4152
2018-03-03T08:18:27.792Z,4112
2018-03-03T08:19:37.654Z,3924
2018-03-03T08:20:47.192Z,4116
2018-03-03T08:21:57.252Z,4760
2018-03-03T08:23:07.050Z,5052
2018-03-03T08:24:17.123Z,5752
2018-03-03T08:25:26.434Z,5916
2018-03-03T08:26:36.521Z,6384
2018-03-03T08:27:46.599Z,5976
2018-03-03T08:28:55.874Z,5680
2018-03-03T08:30:05.965Z,5580
2018-03-03T08:31:15.851Z,5644
2018-03-03T08:32:25.640Z,5500
2018-03-03T08:33:35.458Z,5136
2018-03-03T08:34:45.531Z,5140
2018-03-03T08:35:55.326Z,5152
2018-03-03T08:37:05.149Z,5372
2018-03-03T08:38:15.218Z,5548
2018-03-03T08:39:25.042Z,5900
2018-03-03T08:40:34.865Z,6080
2018-03-03T08:41:44.965Z,6544
2018-03-03T08:42:55.051Z,6520
2018-03-03T08:44:05.234Z,6900
2018-03-03T08:45:15.296Z,6940
2018-03-03T08:46:25.354Z,6856
2018-03-03T08:47:35.432Z,6668
2018-03-03T08:48:45.007Z,6396
2018-03-03T08:49:55.082Z,6256
2018-03-03T08:51:04.904Z,6252
2018-03-03T08:52:14.735Z,6272
2018-03-03T08:53:24.798Z,6348
2018-03-03T08:54:35.153Z,6288
2018-03-03T08:55:45.212Z,6208
2018-03-03T08:56:55.267Z,6180
2018-03-03T08:58:05.344Z,6272
2018-03-03T08:59:15.410Z,6384
2018-03-03T09:00:25.482Z,6324
2018-03-03T09:01:35.556Z,6212
2018-03-03T09:02:45.364Z,6216
2018-03-03T09:03:55.443Z,6328
2018-03-03T09:05:04.999Z,6532
2018-03-03T09:06:14.807Z,6720
2018-03-03T09:07:24.605Z,6896
2018-03-03T09:08:34.198Z,6916
2018-03-03T09:09:44.041Z,6876
2018-03-03T09:10:54.113Z,6924
2018-03-03T09:12:03.671Z,6964
2018-03-03T09:13:13.501Z,6892
2018-03-03T09:14:23.601Z,6824
2018-03-03T09:15:33.477Z,6600
2018-03-03T09:16:43.544Z,6508
2018-03-03T09:17:53.395Z,6500
2018-03-03T09:19:03.495Z,6712
2018-03-03T09:20:13.315Z,6972
2018-03-03T09:21:23.139Z,7092
2018-03-03T09:22:33.250Z,7124
2018-03-03T09:23:43.330Z,7056
2018-03-03T09:24:53.131Z,6920
2018-03-03T09:26:03.201Z,6848
2018-03-03T09:27:13.032Z,6804
2018-03-03T09:28:23.103Z,6972
2018-03-03T09:29:33.172Z,6868
2018-03-03T09:30:43.239Z,7132
2018-03-03T09:31:53.060Z,6836
2018-03-03T09:33:02.882Z,6664
2018-03-03T09:34:12.980Z,6596
2018-03-03T09:35:23.090Z,6668
2018-03-03T09:36:33.150Z,6504
2018-03-03T09:37:43.228Z,6484
2018-03-03T09:38:53.059Z,6544
2018-03-03T09:40:02.854Z,6244
2018-03-03T09:41:12.983Z,6200
2018-03-03T09:42:23.036Z,6020
2018-03-03T09:43:32.895Z,6184
2018-03-03T09:44:42.970Z,6180
2018-03-03T09:45:53.068Z,6132
2018-03-03T09:47:02.923Z,6204
2018-03-03T09:48:12.744Z,6332
2018-03-03T09:49:22.807Z,6312
2018-03-03T09:50:32.888Z,6296
2018-03-03T09:51:42.970Z,6296
2018-03-03T09:52:53.046Z,6360
2018-03-03T09:54:02.859Z,6364
2018-03-03T09:55:12.947Z,6388
2018-03-03T09:56:22.894Z,6432
2018-03-03T09:57:32.963Z,6444
2018-03-03T09:58:42.566Z,6456
2018-03-03T09:59:52.538Z,6488
2018-03-03T10:01:02.663Z,6380
2018-03-03T10:02:13.816Z,6220
2018-03-03T10:03:23.877Z,6136
2018-03-03T10:04:33.954Z,6152
2018-03-03T10:05:43.783Z,6200
2018-03-03T10:06:53.621Z,6164
2018-03-03T10:08:03.200Z,6032
2018-03-03T10:09:13.087Z,5884
2018-03-03T10:10:22.946Z,5740
2018-03-03T10:11:32.493Z,5656
2018-03-03T10:12:42.329Z,5648
2018-03-03T10:13:52.120Z,5664
2018-03-03T10:15:02.200Z,5708
2018-03-03T10:16:12.476Z,5836
2018-03-03T10:17:22.296Z,6084
2018-03-03T10:18:32.149Z,6384
2018-03-03T10:19:42.240Z,6576
2018-03-03T10:20:51.924Z,6552
2018-03-03T10:22:02.181Z,6572
2018-03-03T10:23:12.288Z,6780
2018-03-03T10:24:21.830Z,7100
2018-03-03T10:25:31.649Z,7360
2018-03-03T10:26:41.469Z,7196
2018-03-03T10:27:51.035Z,6908
2018-03-03T10:29:00.839Z,6772
2018-03-03T10:30:10.931Z,6820
2018-03-03T10:31:21.034Z,6932
2018-03-03T10:32:30.846Z,6848
2018-03-03T10:33:40.696Z,6648
2018-03-03T10:34:50.822Z,6608
2018-03-03T10:36:00.633Z,6744
2018-03-03T10:37:10.711Z,7012
2018-03-03T10:38:20.562Z,7224
2018-03-03T10:39:30.363Z,7180
2018-03-03T10:40:40.245Z,6976
2018-03-03T10:41:50.051Z,6996
2018-03-03T10:42:59.866Z,7168
2018-03-03T10:44:09.935Z,7112
2018-03-03T10:45:20.071Z,7188
2018-03-03T10:46:30.192Z,7176
2018-03-03T10:47:40.000Z,7068
2018-03-03T10:48:50.081Z,7004
2018-03-03T10:50:00.167Z,6996
2018-03-03T10:51:10.255Z,6980
2018-03-03T10:52:20.092Z,6936
2018-03-03T10:53:30.173Z,6888
2018-03-03T10:54:39.997Z,6828
2018-03-03T10:55:49.523Z,6792
2018-03-03T10:56:59.141Z,6864
2018-03-03T10:58:08.692Z,6936
2018-03-03T10:59:18.853Z,6968
2018-03-03T11:00:28.661Z,7012
2018-03-03T11:01:38.576Z,7000
2018-03-03T11:02:48.152Z,7012
2018-03-03T11:03:57.764Z,6988
2018-03-03T11:05:07.463Z,7024
2018-03-03T11:06:17.256Z,7060
2018-03-03T11:07:27.341Z,7124
2018-03-03T11:08:37.173Z,7204
2018-03-03T11:09:47.250Z,7200
2018-03-03T11:10:57.310Z,7164
2018-03-03T11:12:07.403Z,7124
2018-03-03T11:13:16.966Z,7172
2018-03-03T11:14:26.566Z,7272
2018-03-03T11:15:36.647Z,7212
2018-03-03T11:16:46.742Z,7144
2018-03-03T11:17:56.287Z,7116
2018-03-03T11:19:06.161Z,7188
2018-03-03T11:20:15.726Z,7284
2018-03-03T11:21:25.583Z,7248
2018-03-03T11:22:35.671Z,7208
2018-03-03T11:23:45.567Z,7196
2018-03-03T11:24:55.649Z,7200
2018-03-03T11:26:05.836Z,7172
2018-03-03T11:27:15.656Z,6892
2018-03-03T11:28:25.743Z,6708
2018-03-03T11:29:35.579Z,6656
2018-03-03T11:30:45.659Z,6740
2018-03-03T11:31:55.846Z,6792
2018-03-03T11:33:05.626Z,6772
2018-03-03T11:34:15.530Z,6676
2018-03-03T11:35:25.864Z,6568
2018-03-03T11:36:35.692Z,6476
2018-03-03T11:37:45.498Z,6376
2018-03-03T11:38:55.042Z,6332
2018-03-03T11:40:04.879Z,6316
2018-03-03T11:41:14.710Z,6384
2018-03-03T11:42:24.263Z,6272
2018-03-03T11:43:34.125Z,6092
2018-03-03T11:44:43.962Z,6020
2018-03-03T11:45:53.546Z,6120
2018-03-03T11:47:03.612Z,6312
2018-03-03T11:48:13.719Z,6440
2018-03-03T11:49:23.347Z,6428
2018-03-03T11:50:33.462Z,6320
2018-03-03T11:51:43.593Z,6232
2018-03-03T11:52:53.406Z,6168
2018-03-03T11:54:03.471Z,6136
2018-03-03T11:55:13.319Z,6048
2018-03-03T11:56:23.667Z,5940
2018-03-03T11:57:33.772Z,5804
2018-03-03T11:58:43.855Z,5676
2018-03-03T11:59:53.398Z,5628
2018-03-03T12:01:03.528Z,5676
2018-03-03T12:02:13.648Z,5740
2018-03-03T12:03:23.741Z,5728
2018-03-03T12:04:33.849Z,5712
2018-03-03T12:05:43.925Z,5692
2018-03-03T12:06:53.560Z,5660
2018-03-03T12:08:03.644Z,5624
2018-03-03T12:09:13.734Z,5592
2018-03-03T12:10:24.093Z,5592
2018-03-03T12:11:34.228Z,5592
2018-03-03T12:12:44.304Z,5584
2018-03-03T12:13:53.845Z,5592
2018-03-03T12:15:03.682Z,5612
2018-03-03T12:16:13.754Z,5608
2018-03-03T12:17:23.620Z,5584
2018-03-03T12:18:33.688Z,5544
2018-03-03T12:19:43.514Z,5500
2018-03-03T12:20:53.340Z,5452
2018-03-03T12:22:03.427Z,5436
2018-03-03T12:23:13.475Z,5480
2018-03-03T12:24:23.022Z,5548
2018-03-03T12:25:32.772Z,5588
2018-03-03T12:26:42.906Z,5592
2018-03-03T12:27:52.518Z,5540
2018-03-03T12:29:02.126Z,5448
2018-03-03T12:30:11.976Z,5368
2018-03-03T12:31:21.288Z,5364
2018-03-03T12:32:30.309Z,5408
2018-03-03T12:33:40.459Z,5464
2018-03-03T12:34:50.633Z,5520
2018-03-03T12:36:00.501Z,5560
2018-03-03T12:37:10.629Z,5540
2018-03-03T12:38:20.264Z,5520
2018-03-03T12:39:30.331Z,5492
2018-03-03T12:40:40.407Z,5516
2018-03-03T12:41:50.262Z,5560
2018-03-03T12:43:00.406Z,5588
2018-03-03T12:44:10.248Z,5584
2018-03-03T12:45:20.127Z,5564
2018-03-03T12:46:30.238Z,5560
2018-03-03T12:47:39.807Z,5584
2018-03-03T12:48:49.912Z,5604
2018-03-03T12:49:59.775Z,5588
2018-03-03T12:51:10.131Z,5576
2018-03-03T12:52:20.911Z,5556
2018-03-03T12:53:30.906Z,5576
2018-03-03T12:54:40.735Z,5616
2018-03-03T12:55:50.557Z,5584
2018-03-03T12:57:00.365Z,5472
2018-03-03T12:58:10.214Z,5400
2018-03-03T12:59:20.629Z,5396
2018-03-03T13:00:30.626Z,5380
2018-03-03T13:01:40.441Z,5312
2018-03-03T13:02:50.261Z,5224
2018-03-03T13:04:00.463Z,5180
2018-03-03T13:05:10.289Z,5200
2018-03-03T13:06:20.119Z,5124
2018-03-03T13:07:30.219Z,4676
2018-03-03T13:08:39.775Z,4320
2018-03-03T13:09:49.685Z,4476
2018-03-03T13:10:59.255Z,4792
2018-03-03T13:12:09.341Z,5052
2018-03-03T13:13:19.167Z,5224
2018-03-03T13:14:29.008Z,5320
2018-03-03T13:15:39.205Z,5344
2018-03-03T13:16:49.306Z,5320
2018-03-03T13:17:59.353Z,5276
2018-03-03T13:19:09.438Z,5256
2018-03-03T13:20:19.243Z,5188
2018-03-03T13:21:28.778Z,5052
2018-03-03T13:22:38.326Z,4904
2018-03-03T13:23:47.637Z,4760
2018-03-03T13:24:57.470Z,4556
2018-03-03T13:26:07.764Z,4168
2018-03-03T13:27:17.607Z,3788
2018-03-03T13:28:27.415Z,3588
2018-03-03T13:29:37.243Z,3488
2018-03-03T13:30:47.332Z,3460
2018-03-03T13:31:57.463Z,3516
2018-03-03T13:33:07.541Z,3672
2018-03-03T13:34:17.621Z,3800
2018-03-03T13:35:27.420Z,3856
2018-03-03T13:36:37.508Z,3920
2018-03-03T13:37:47.639Z,4044
2018-03-03T13:38:57.705Z,4164
2018-03-03T13:40:07.782Z,4184
2018-03-03T13:41:17.871Z,4232
2018-03-03T13:42:27.949Z,4320
2018-03-03T13:43:37.818Z,4316
2018-03-03T13:44:47.650Z,4264
2018-03-03T13:45:57.834Z,4292
2018-03-03T13:47:07.403Z,4396
2018-03-03T13:48:17.567Z,4272
2018-03-03T13:49:27.416Z,3988
2018-03-03T13:50:37.481Z,3772
2018-03-03T13:51:47.317Z,3688
2018-03-03T13:52:57.400Z,3724
2018-03-03T13:54:07.209Z,3688
2018-03-03T13:55:17.295Z,3596
2018-03-03T13:56:27.111Z,3552
2018-03-03T13:57:37.175Z,3456
2018-03-03T13:58:47.008Z,3332
2018-03-03T13:59:57.097Z,3224
2018-03-03T14:01:07.216Z,3224
2018-03-03T14:02:16.757Z,3300
2018-03-03T14:03:26.563Z,3336
2018-03-03T14:04:36.617Z,3328
2018-03-03T14:05:46.691Z,3224
2018-03-03T14:06:56.289Z,3100
2018-03-03T14:08:06.367Z,3032
2018-03-03T14:09:16.438Z,2964
2018-03-03T14:10:26.244Z,2880
2018-03-03T14:11:36.320Z,2832
2018-03-03T14:12:46.440Z,2840
2018-03-03T14:13:55.973Z,2896
2018-03-03T14:15:06.090Z,2980
2018-03-03T14:16:16.189Z,3068
2018-03-03T14:17:26.305Z,3152
2018-03-03T14:18:35.829Z,3208
2018-03-03T14:19:45.388Z,3208
2018-03-03T14:20:55.216Z,3172
2018-03-03T14:22:05.020Z,3144
2018-03-03T14:23:14.852Z,3212
2018-03-03T14:24:24.672Z,3344
2018-03-03T14:25:34.496Z,3424
2018-03-03T14:26:43.765Z,3460
2018-03-03T14:27:53.828Z,3520
2018-03-03T14:29:03.625Z,3572
2018-03-03T14:30:13.703Z,3696
2018-03-03T14:31:23.518Z,3784
2018-03-03T14:32:33.601Z,3780
2018-03-03T14:33:43.683Z,3736
2018-03-03T14:34:53.284Z,3640
2018-03-03T14:36:03.352Z,3568
2018-03-03T14:37:13.163Z,3628
2018-03-03T14:38:22.975Z,3692
2018-03-03T14:39:32.532Z,3760
2018-03-03T14:40:42.140Z,3804
2018-03-03T14:41:52.203Z,3808
2018-03-03T14:43:02.271Z,3768
2018-03-03T14:44:12.088Z,3712
2018-03-03T14:45:22.234Z,3664
2018-03-03T14:46:32.089Z,3644
2018-03-03T14:47:41.888Z,3600
2018-03-03T14:48:51.446Z,3472
2018-03-03T14:50:01.529Z,3288
2018-03-03T14:51:11.606Z,3112
2018-03-03T14:52:21.425Z,2964
2018-03-03T14:53:31.495Z,2804
2018-03-03T14:54:41.570Z,2632
2018-03-03T14:55:51.365Z,2388
2018-03-03T14:57:00.912Z,2160
2018-03-03T14:58:11.077Z,1992
2018-03-03T14:59:21.182Z,1880
2018-03-03T15:00:30.992Z,1824
2018-03-03T15:01:40.828Z,1852
2018-03-03T15:02:50.895Z,1920
2018-03-03T15:04:00.708Z,1956
2018-03-03T15:05:10.881Z,1928
2018-03-03T15:06:20.945Z,1952
2018-03-03T15:07:30.766Z,1996
2018-03-03T15:08:40.837Z,2000
2018-03-03T15:09:50.926Z,2020
2018-03-03T15:11:00.509Z,2060
2018-03-03T15:12:10.566Z,2084
2018-03-03T15:13:20.627Z,2076
2018-03-03T15:14:29.911Z,2044
2018-03-03T15:15:39.989Z,1980
2018-03-03T15:16:50.068Z,1908
2018-03-03T15:18:00.147Z,1816
2018-03-03T15:19:09.685Z,1632
2018-03-03T15:20:19.242Z,1484
2018-03-03T15:21:29.396Z,1504
2018-03-03T15:22:39.475Z,1548
2018-03-03T15:23:48.763Z,1584
2018-03-03T15:24:58.847Z,1608
2018-03-03T15:26:08.731Z,1620
2018-03-03T15:27:18.859Z,1620
2018-03-03T15:28:28.437Z,1632
2018-03-03T15:29:38.269Z,1668
2018-03-03T15:30:48.356Z,1696
2018-03-03T15:31:57.890Z,1732
2018-03-03T15:33:08.022Z,1744
2018-03-03T15:34:18.093Z,1704
2018-03-03T15:35:27.901Z,1592
2018-03-03T15:36:37.711Z,1452
2018-03-03T15:37:47.415Z,1308
2018-03-03T15:38:57.222Z,1176
2018-03-03T15:40:07.306Z,1084
2018-03-03T15:41:17.366Z,1016
2018-03-03T15:42:27.200Z,952
2018-03-03T15:43:37.300Z,904
2018-03-03T15:44:47.094Z,872
2018-03-03T15:45:57.192Z,860
2018-03-03T15:47:07.030Z,856
2018-03-03T15:48:17.110Z,856
2018-03-03T15:49:27.224Z,856
2018-03-03T15:50:37.375Z,856
2018-03-03T15:51:47.493Z,916
2018-03-03T15:52:57.555Z,960
2018-03-03T15:54:07.423Z,928
2018-03-03T15:55:17.030Z,892
2018-03-03T15:56:26.967Z,844
2018-03-03T15:57:37.065Z,736
2018-03-03T15:58:46.343Z,640
2018-03-03T15:59:56.422Z,584
2018-03-03T16:01:06.241Z,552
2018-03-03T16:02:16.317Z,528
2018-03-03T16:03:25.925Z,520
2018-03-03T16:04:36.011Z,520
2018-03-03T16:05:46.121Z,520
2018-03-03T16:06:56.350Z,516
2018-03-03T16:08:06.465Z,512
2018-03-03T16:09:16.763Z,500
2018-03-03T16:10:26.844Z,472
2018-03-03T16:11:36.923Z,448
2018-03-03T16:12:46.808Z,420
2018-03-03T16:13:56.649Z,396
2018-03-03T16:15:06.483Z,376
2018-03-03T16:16:16.549Z,360
2018-03-03T16:17:26.639Z,348
2018-03-03T16:18:36.317Z,332
2018-03-03T16:19:45.863Z,320
2018-03-03T16:20:55.940Z,304
2018-03-03T16:22:06.049Z,284
2018-03-03T16:23:16.097Z,264
2018-03-03T16:24:26.183Z,244
2018-03-03T16:25:36.406Z,228
2018-03-03T16:26:46.581Z,216
2018-03-03T16:27:56.623Z,196
2018-03-03T16:29:06.687Z,180
2018-03-03T16:30:16.568Z,164
2018-03-03T16:31:26.376Z,148
2018-03-03T16:32:36.555Z,132
2018-03-03T16:33:46.426Z,124
2018-03-03T16:34:56.228Z,112